sensor_id;sensor_type;location;lat;lon;timestamp;P1;durP1;ratioP1;P2;durP2;ratioP2
3447;SDS011;1738;49.500;17.736;2022-08-11T00:00:57;13.90;;;9.00;;
3447;SDS011;1738;49.500;17.736;2022-08-11T00:03:22;11.30;;;9.53;;
3447;SDS011;1738;49.500;17.736;2022-08-11T00:05:50;11.47;;;8.83;;
3447;SDS011;1738;49.500;17.736;2022-08-11T00:08:23;11.77;;;10.10;;
3447;SDS011;1738;49.500;17.736;2022-08-11T00:10:54;10.97;;;9.50;;
3447;SDS011;1738;49.500;17.736;2022-08-11T00:13:18;12.67;;;9.13;;
3447;SDS011;1738;49.500;17.736;2022-08-11T00:15:44;15.17;;;9.60;;
3447;SDS011;1738;49.500;17.736;2022-08-11T00:18:10;22.80;;;10.40;;
3447;SDS011;1738;49.500;17.736;2022-08-11T00:20:37;9.90;;;8.57;;
3447;SDS011;1738;49.500;17.736;2022-08-11T00:23:05;12.40;;;8.80;;
3447;SDS011;1738;49.500;17.736;2022-08-11T00:25:28;9.37;;;8.43;;
3447;SDS011;1738;49.500;17.736;2022-08-11T00:27:53;16.80;;;8.27;;
3447;SDS011;1738;49.500;17.736;2022-08-11T00:30:19;11.17;;;9.77;;
3447;SDS011;1738;49.500;17.736;2022-08-11T00:32:51;10.93;;;8.60;;
3447;SDS011;1738;49.500;17.736;2022-08-11T00:35:12;10.87;;;9.40;;
3447;SDS011;1738;49.500;17.736;2022-08-11T00:37:37;16.40;;;9.57;;
3447;SDS011;1738;49.500;17.736;2022-08-11T00:40:03;11.10;;;9.20;;
3447;SDS011;1738;49.500;17.736;2022-08-11T00:42:39;9.37;;;8.23;;
3447;SDS011;1738;49.500;17.736;2022-08-11T00:45:08;9.93;;;8.93;;
3447;SDS011;1738;49.500;17.736;2022-08-11T00:47:41;9.53;;;8.10;;
3447;SDS011;1738;49.500;17.736;2022-08-11T00:50:08;13.37;;;8.40;;
3447;SDS011;1738;49.500;17.736;2022-08-11T00:52:35;10.30;;;9.17;;
3447;SDS011;1738;49.500;17.736;2022-08-11T00:55:02;13.80;;;8.90;;
3447;SDS011;1738;49.500;17.736;2022-08-11T00:57:52;12.80;;;8.30;;
3447;SDS011;1738;49.500;17.736;2022-08-11T01:00:13;9.03;;;8.00;;
3447;SDS011;1738;49.500;17.736;2022-08-11T01:02:44;12.47;;;8.53;;
3447;SDS011;1738;49.500;17.736;2022-08-11T01:05:21;9.87;;;8.87;;
3447;SDS011;1738;49.500;17.736;2022-08-11T01:07:49;12.47;;;9.23;;
3447;SDS011;1738;49.500;17.736;2022-08-11T01:10:22;10.83;;;7.80;;
3447;SDS011;1738;49.500;17.736;2022-08-11T01:12:44;12.50;;;8.90;;
3447;SDS011;1738;49.500;17.736;2022-08-11T01:15:17;10.00;;;8.60;;
3447;SDS011;1738;49.500;17.736;2022-08-11T01:20:35;15.00;;;8.93;;
3447;SDS011;1738;49.500;17.736;2022-08-11T01:22:58;10.70;;;8.60;;
3447;SDS011;1738;49.500;17.736;2022-08-11T01:28:01;10.03;;;7.70;;
3447;SDS011;1738;49.500;17.736;2022-08-11T01:30:29;10.27;;;7.70;;
3447;SDS011;1738;49.500;17.736;2022-08-11T01:32:55;10.07;;;8.07;;
3447;SDS011;1738;49.500;17.736;2022-08-11T01:42:56;11.03;;;8.80;;
3447;SDS011;1738;49.500;17.736;2022-08-11T01:45:36;11.50;;;8.40;;
3447;SDS011;1738;49.500;17.736;2022-08-11T01:48:05;11.60;;;9.07;;
3447;SDS011;1738;49.500;17.736;2022-08-11T01:50:39;10.17;;;8.07;;
3447;SDS011;1738;49.500;17.736;2022-08-11T01:53:11;12.13;;;8.60;;
3447;SDS011;1738;49.500;17.736;2022-08-11T01:55:38;14.63;;;9.13;;
3447;SDS011;1738;49.500;17.736;2022-08-11T01:58:12;12.67;;;8.90;;
3447;SDS011;1738;49.500;17.736;2022-08-11T02:00:36;13.67;;;8.77;;
3447;SDS011;1738;49.500;17.736;2022-08-11T02:03:02;9.90;;;8.60;;
3447;SDS011;1738;49.500;17.736;2022-08-11T02:06:38;8.83;;;7.13;;
3447;SDS011;1738;49.500;17.736;2022-08-11T02:08:30;11.17;;;8.50;;
3447;SDS011;1738;49.500;17.736;2022-08-11T02:10:55;12.30;;;8.77;;
3447;SDS011;1738;49.500;17.736;2022-08-11T02:16:06;8.13;;;7.07;;
3447;SDS011;1738;49.500;17.736;2022-08-11T02:18:46;10.43;;;8.87;;
3447;SDS011;1738;49.500;17.736;2022-08-11T02:21:15;9.10;;;7.50;;
3447;SDS011;1738;49.500;17.736;2022-08-11T02:23:51;10.43;;;8.43;;
3447;SDS011;1738;49.500;17.736;2022-08-11T02:26:19;10.93;;;8.20;;
3447;SDS011;1738;49.500;17.736;2022-08-11T02:31:17;10.20;;;7.77;;
3447;SDS011;1738;49.500;17.736;2022-08-11T02:33:47;10.03;;;8.43;;
3447;SDS011;1738;49.500;17.736;2022-08-11T02:36:16;10.30;;;8.70;;
3447;SDS011;1738;49.500;17.736;2022-08-11T02:38:46;18.33;;;9.27;;
3447;SDS011;1738;49.500;17.736;2022-08-11T02:41:11;10.20;;;8.50;;
3447;SDS011;1738;49.500;17.736;2022-08-11T02:43:40;9.00;;;7.50;;
3447;SDS011;1738;49.500;17.736;2022-08-11T02:48:39;9.50;;;7.63;;
3447;SDS011;1738;49.500;17.736;2022-08-11T02:51:16;15.00;;;8.70;;
3447;SDS011;1738;49.500;17.736;2022-08-11T02:53:41;12.13;;;8.40;;
3447;SDS011;1738;49.500;17.736;2022-08-11T02:56:06;17.67;;;9.97;;
3447;SDS011;1738;49.500;17.736;2022-08-11T03:01:07;11.53;;;9.23;;
3447;SDS011;1738;49.500;17.736;2022-08-11T03:03:33;13.27;;;9.47;;
3447;SDS011;1738;49.500;17.736;2022-08-11T03:06:06;12.10;;;9.43;;
3447;SDS011;1738;49.500;17.736;2022-08-11T03:08:35;14.50;;;10.67;;
3447;SDS011;1738;49.500;17.736;2022-08-11T03:11:00;14.90;;;9.60;;
3447;SDS011;1738;49.500;17.736;2022-08-11T03:13:30;12.27;;;9.67;;
3447;SDS011;1738;49.500;17.736;2022-08-11T03:16:08;12.50;;;9.13;;
3447;SDS011;1738;49.500;17.736;2022-08-11T03:18:40;11.63;;;9.57;;
3447;SDS011;1738;49.500;17.736;2022-08-11T03:21:08;10.57;;;8.63;;
3447;SDS011;1738;49.500;17.736;2022-08-11T03:23:38;10.10;;;8.20;;
3447;SDS011;1738;49.500;17.736;2022-08-11T03:27:08;16.63;;;11.40;;
3447;SDS011;1738;49.500;17.736;2022-08-11T03:28:44;15.83;;;13.00;;
3447;SDS011;1738;49.500;17.736;2022-08-11T03:31:27;14.10;;;12.27;;
3447;SDS011;1738;49.500;17.736;2022-08-11T03:33:56;17.30;;;11.77;;
3447;SDS011;1738;49.500;17.736;2022-08-11T03:39:09;17.50;;;12.97;;
3447;SDS011;1738;49.500;17.736;2022-08-11T03:41:35;15.10;;;12.80;;
3447;SDS011;1738;49.500;17.736;2022-08-11T03:46:47;14.37;;;12.03;;
3447;SDS011;1738;49.500;17.736;2022-08-11T03:49:13;13.10;;;10.17;;
3447;SDS011;1738;49.500;17.736;2022-08-11T03:51:38;16.43;;;12.00;;
3447;SDS011;1738;49.500;17.736;2022-08-11T03:54:06;14.77;;;11.43;;
3447;SDS011;1738;49.500;17.736;2022-08-11T03:56:39;16.27;;;11.90;;
3447;SDS011;1738;49.500;17.736;2022-08-11T04:01:36;14.10;;;11.93;;
3447;SDS011;1738;49.500;17.736;2022-08-11T04:04:06;12.70;;;10.47;;
3447;SDS011;1738;49.500;17.736;2022-08-11T04:06:30;20.33;;;13.67;;
3447;SDS011;1738;49.500;17.736;2022-08-11T04:14:12;18.53;;;12.40;;
3447;SDS011;1738;49.500;17.736;2022-08-11T04:16:43;18.60;;;13.87;;
3447;SDS011;1738;49.500;17.736;2022-08-11T04:19:14;21.30;;;15.60;;
3447;SDS011;1738;49.500;17.736;2022-08-11T04:21:50;21.90;;;14.67;;
3447;SDS011;1738;49.500;17.736;2022-08-11T04:24:23;16.37;;;14.50;;
3447;SDS011;1738;49.500;17.736;2022-08-11T04:26:49;19.40;;;14.20;;
3447;SDS011;1738;49.500;17.736;2022-08-11T04:31:53;24.90;;;15.37;;
3447;SDS011;1738;49.500;17.736;2022-08-11T04:42:09;24.10;;;16.90;;
3447;SDS011;1738;49.500;17.736;2022-08-11T04:44:49;26.63;;;19.33;;
3447;SDS011;1738;49.500;17.736;2022-08-11T04:47:09;26.87;;;18.27;;
3447;SDS011;1738;49.500;17.736;2022-08-11T04:49:41;24.50;;;18.47;;
3447;SDS011;1738;49.500;17.736;2022-08-11T04:52:22;27.97;;;21.00;;
3447;SDS011;1738;49.500;17.736;2022-08-11T04:54:55;40.37;;;29.10;;
3447;SDS011;1738;49.500;17.736;2022-08-11T04:57:32;44.37;;;37.23;;
3447;SDS011;1738;49.500;17.736;2022-08-11T05:07:51;29.70;;;22.00;;
3447;SDS011;1738;49.500;17.736;2022-08-11T05:10:20;27.90;;;21.47;;
3447;SDS011;1738;49.500;17.736;2022-08-11T05:12:47;24.53;;;18.10;;
3447;SDS011;1738;49.500;17.736;2022-08-11T05:15:12;25.40;;;18.97;;
3447;SDS011;1738;49.500;17.736;2022-08-11T05:17:45;26.60;;;18.80;;
3447;SDS011;1738;49.500;17.736;2022-08-11T05:20:15;24.47;;;15.50;;
3447;SDS011;1738;49.500;17.736;2022-08-11T05:22:48;22.13;;;15.60;;
3447;SDS011;1738;49.500;17.736;2022-08-11T05:25:19;15.80;;;13.20;;
3447;SDS011;1738;49.500;17.736;2022-08-11T05:30:28;18.30;;;14.03;;
3447;SDS011;1738;49.500;17.736;2022-08-11T05:33:04;16.00;;;11.90;;
3447;SDS011;1738;49.500;17.736;2022-08-11T05:35:39;16.47;;;11.13;;
3447;SDS011;1738;49.500;17.736;2022-08-11T05:38:03;16.03;;;10.87;;
3447;SDS011;1738;49.500;17.736;2022-08-11T05:40:35;17.90;;;10.93;;
3447;SDS011;1738;49.500;17.736;2022-08-11T05:43:10;13.23;;;10.33;;
3447;SDS011;1738;49.500;17.736;2022-08-11T05:45:38;16.73;;;9.60;;
3447;SDS011;1738;49.500;17.736;2022-08-11T05:48:09;13.10;;;10.03;;
3447;SDS011;1738;49.500;17.736;2022-08-11T05:50:41;11.20;;;8.97;;
3447;SDS011;1738;49.500;17.736;2022-08-11T05:53:13;13.20;;;10.00;;
3447;SDS011;1738;49.500;17.736;2022-08-11T05:55:44;11.50;;;9.30;;
3447;SDS011;1738;49.500;17.736;2022-08-11T05:58:16;11.60;;;9.37;;
3447;SDS011;1738;49.500;17.736;2022-08-11T06:00:42;12.53;;;10.03;;
3447;SDS011;1738;49.500;17.736;2022-08-11T06:03:07;13.27;;;8.43;;
3447;SDS011;1738;49.500;17.736;2022-08-11T06:05:34;11.93;;;9.40;;
3447;SDS011;1738;49.500;17.736;2022-08-11T06:07:59;18.27;;;8.70;;
3447;SDS011;1738;49.500;17.736;2022-08-11T06:10:26;8.67;;;7.47;;
3447;SDS011;1738;49.500;17.736;2022-08-11T06:12:52;12.07;;;8.07;;
3447;SDS011;1738;49.500;17.736;2022-08-11T06:15:17;12.97;;;7.57;;
3447;SDS011;1738;49.500;17.736;2022-08-11T06:17:44;10.93;;;7.07;;
3447;SDS011;1738;49.500;17.736;2022-08-11T06:20:09;15.83;;;7.43;;
3447;SDS011;1738;49.500;17.736;2022-08-11T06:22:35;9.07;;;7.10;;
3447;SDS011;1738;49.500;17.736;2022-08-11T06:25:02;10.23;;;7.03;;
3447;SDS011;1738;49.500;17.736;2022-08-11T06:27:28;8.93;;;6.83;;
3447;SDS011;1738;49.500;17.736;2022-08-11T06:29:54;17.80;;;7.57;;
3447;SDS011;1738;49.500;17.736;2022-08-11T06:32:20;9.93;;;6.60;;
3447;SDS011;1738;49.500;17.736;2022-08-11T06:34:52;9.27;;;6.70;;
3447;SDS011;1738;49.500;17.736;2022-08-11T06:37:15;8.10;;;6.00;;
3447;SDS011;1738;49.500;17.736;2022-08-11T06:39:49;11.47;;;6.90;;
3447;SDS011;1738;49.500;17.736;2022-08-11T06:42:25;8.97;;;6.57;;
3447;SDS011;1738;49.500;17.736;2022-08-11T06:44:53;8.83;;;6.00;;
3447;SDS011;1738;49.500;17.736;2022-08-11T06:47:15;9.30;;;6.80;;
3447;SDS011;1738;49.500;17.736;2022-08-11T06:49:43;14.37;;;6.63;;
3447;SDS011;1738;49.500;17.736;2022-08-11T06:52:13;11.43;;;6.17;;
3447;SDS011;1738;49.500;17.736;2022-08-11T06:54:39;12.70;;;6.20;;
3447;SDS011;1738;49.500;17.736;2022-08-11T06:57:05;9.43;;;6.10;;
3447;SDS011;1738;49.500;17.736;2022-08-11T06:59:36;10.60;;;5.97;;
3447;SDS011;1738;49.500;17.736;2022-08-11T07:02:14;11.50;;;5.87;;
3447;SDS011;1738;49.500;17.736;2022-08-11T07:04:39;10.23;;;6.87;;
3447;SDS011;1738;49.500;17.736;2022-08-11T07:07:14;16.03;;;7.13;;
3447;SDS011;1738;49.500;17.736;2022-08-11T07:12:36;7.83;;;5.90;;
3447;SDS011;1738;49.500;17.736;2022-08-11T07:15:05;11.00;;;6.57;;
3447;SDS011;1738;49.500;17.736;2022-08-11T07:17:44;10.53;;;6.03;;
3447;SDS011;1738;49.500;17.736;2022-08-11T07:20:09;9.27;;;6.60;;
3447;SDS011;1738;49.500;17.736;2022-08-11T07:22:41;18.70;;;6.40;;
3447;SDS011;1738;49.500;17.736;2022-08-11T07:25:13;9.07;;;5.13;;
3447;SDS011;1738;49.500;17.736;2022-08-11T07:27:45;9.47;;;5.20;;
3447;SDS011;1738;49.500;17.736;2022-08-11T07:30:16;11.03;;;6.37;;
3447;SDS011;1738;49.500;17.736;2022-08-11T07:32:46;13.00;;;5.47;;
3447;SDS011;1738;49.500;17.736;2022-08-11T07:35:10;19.27;;;6.77;;
3447;SDS011;1738;49.500;17.736;2022-08-11T07:37:38;8.37;;;5.00;;
3447;SDS011;1738;49.500;17.736;2022-08-11T07:40:03;7.30;;;5.00;;
3447;SDS011;1738;49.500;17.736;2022-08-11T07:42:30;8.07;;;5.60;;
3447;SDS011;1738;49.500;17.736;2022-08-11T07:44:55;14.50;;;6.23;;
3447;SDS011;1738;49.500;17.736;2022-08-11T07:47:26;13.20;;;6.20;;
3447;SDS011;1738;49.500;17.736;2022-08-11T07:49:58;7.23;;;5.67;;
3447;SDS011;1738;49.500;17.736;2022-08-11T07:52:31;8.50;;;4.57;;
3447;SDS011;1738;49.500;17.736;2022-08-11T07:54:57;11.13;;;6.27;;
3447;SDS011;1738;49.500;17.736;2022-08-11T07:57:21;6.53;;;4.73;;
3447;SDS011;1738;49.500;17.736;2022-08-11T07:59:53;12.00;;;6.00;;
3447;SDS011;1738;49.500;17.736;2022-08-11T08:02:24;9.27;;;4.93;;
3447;SDS011;1738;49.500;17.736;2022-08-11T08:04:56;8.27;;;4.50;;
3447;SDS011;1738;49.500;17.736;2022-08-11T08:07:28;14.70;;;4.50;;
3447;SDS011;1738;49.500;17.736;2022-08-11T08:09:59;8.37;;;4.83;;
3447;SDS011;1738;49.500;17.736;2022-08-11T08:12:31;9.47;;;5.00;;
3447;SDS011;1738;49.500;17.736;2022-08-11T08:15:04;9.63;;;4.60;;
3447;SDS011;1738;49.500;17.736;2022-08-11T08:17:34;10.30;;;3.90;;
3447;SDS011;1738;49.500;17.736;2022-08-11T08:20:07;8.23;;;3.80;;
3447;SDS011;1738;49.500;17.736;2022-08-11T08:22:32;7.20;;;4.30;;
3447;SDS011;1738;49.500;17.736;2022-08-11T08:24:58;10.10;;;5.10;;
3447;SDS011;1738;49.500;17.736;2022-08-11T08:27:24;10.00;;;4.43;;
3447;SDS011;1738;49.500;17.736;2022-08-11T08:29:49;8.03;;;4.73;;
3447;SDS011;1738;49.500;17.736;2022-08-11T08:32:21;8.87;;;3.90;;
3447;SDS011;1738;49.500;17.736;2022-08-11T08:34:49;7.70;;;4.43;;
3447;SDS011;1738;49.500;17.736;2022-08-11T08:37:18;11.10;;;4.73;;
3447;SDS011;1738;49.500;17.736;2022-08-11T08:39:45;8.57;;;5.10;;
3447;SDS011;1738;49.500;17.736;2022-08-11T08:42:11;9.57;;;4.77;;
3447;SDS011;1738;49.500;17.736;2022-08-11T08:44:38;6.87;;;4.00;;
3447;SDS011;1738;49.500;17.736;2022-08-11T08:47:02;15.83;;;5.63;;
3447;SDS011;1738;49.500;17.736;2022-08-11T08:49:30;12.43;;;6.47;;
3447;SDS011;1738;49.500;17.736;2022-08-11T08:51:54;5.60;;;4.30;;
3447;SDS011;1738;49.500;17.736;2022-08-11T08:54:22;12.53;;;4.60;;
3447;SDS011;1738;49.500;17.736;2022-08-11T08:56:47;15.50;;;4.03;;
3447;SDS011;1738;49.500;17.736;2022-08-11T08:59:12;9.30;;;4.93;;
3447;SDS011;1738;49.500;17.736;2022-08-11T09:01:42;6.03;;;3.97;;
3447;SDS011;1738;49.500;17.736;2022-08-11T09:04:06;8.13;;;4.60;;
3447;SDS011;1738;49.500;17.736;2022-08-11T09:06:33;8.37;;;4.30;;
3447;SDS011;1738;49.500;17.736;2022-08-11T09:08:59;7.10;;;4.57;;
3447;SDS011;1738;49.500;17.736;2022-08-11T09:11:24;5.90;;;3.30;;
3447;SDS011;1738;49.500;17.736;2022-08-11T09:14:11;7.90;;;4.20;;
3447;SDS011;1738;49.500;17.736;2022-08-11T09:16:37;7.37;;;5.00;;
3447;SDS011;1738;49.500;17.736;2022-08-11T09:19:03;6.27;;;4.43;;
3447;SDS011;1738;49.500;17.736;2022-08-11T09:21:28;7.80;;;4.83;;
3447;SDS011;1738;49.500;17.736;2022-08-11T09:23:54;8.70;;;4.90;;
3447;SDS011;1738;49.500;17.736;2022-08-11T09:26:26;7.10;;;4.30;;
3447;SDS011;1738;49.500;17.736;2022-08-11T09:28:58;8.87;;;4.30;;
3447;SDS011;1738;49.500;17.736;2022-08-11T09:31:23;4.90;;;3.30;;
3447;SDS011;1738;49.500;17.736;2022-08-11T09:33:50;11.50;;;4.73;;
3447;SDS011;1738;49.500;17.736;2022-08-11T09:36:15;8.40;;;4.65;;
3447;SDS011;1738;49.500;17.736;2022-08-11T09:38:47;11.33;;;4.47;;
3447;SDS011;1738;49.500;17.736;2022-08-11T09:41:18;8.50;;;3.93;;
3447;SDS011;1738;49.500;17.736;2022-08-11T09:43:44;11.53;;;5.40;;
3447;SDS011;1738;49.500;17.736;2022-08-11T09:46:16;7.50;;;3.43;;
3447;SDS011;1738;49.500;17.736;2022-08-11T09:48:43;8.07;;;4.70;;
3447;SDS011;1738;49.500;17.736;2022-08-11T09:51:08;6.10;;;3.50;;
3447;SDS011;1738;49.500;17.736;2022-08-11T09:53:35;10.20;;;3.60;;
3447;SDS011;1738;49.500;17.736;2022-08-11T09:56:00;8.87;;;4.50;;
3447;SDS011;1738;49.500;17.736;2022-08-11T09:58:26;10.50;;;4.50;;
3447;SDS011;1738;49.500;17.736;2022-08-11T10:00:52;10.03;;;4.40;;
3447;SDS011;1738;49.500;17.736;2022-08-11T10:03:20;15.13;;;4.47;;
3447;SDS011;1738;49.500;17.736;2022-08-11T10:05:44;14.43;;;4.50;;
3447;SDS011;1738;49.500;17.736;2022-08-11T10:08:15;10.20;;;4.03;;
3447;SDS011;1738;49.500;17.736;2022-08-11T10:10:41;9.73;;;4.17;;
3447;SDS011;1738;49.500;17.736;2022-08-11T10:13:09;6.37;;;4.40;;
3447;SDS011;1738;49.500;17.736;2022-08-11T10:15:33;10.30;;;4.70;;
3447;SDS011;1738;49.500;17.736;2022-08-11T10:18:02;8.80;;;5.53;;
3447;SDS011;1738;49.500;17.736;2022-08-11T10:20:31;5.87;;;3.67;;
3447;SDS011;1738;49.500;17.736;2022-08-11T10:22:57;6.53;;;4.60;;
3447;SDS011;1738;49.500;17.736;2022-08-11T10:25:28;6.50;;;3.67;;
3447;SDS011;1738;49.500;17.736;2022-08-11T10:28:01;9.80;;;3.73;;
3447;SDS011;1738;49.500;17.736;2022-08-11T10:30:25;7.20;;;3.30;;
3447;SDS011;1738;49.500;17.736;2022-08-11T10:32:57;4.07;;;3.20;;
3447;SDS011;1738;49.500;17.736;2022-08-11T10:35:29;8.13;;;3.00;;
3447;SDS011;1738;49.500;17.736;2022-08-11T10:37:54;4.97;;;2.70;;
3447;SDS011;1738;49.500;17.736;2022-08-11T10:40:21;7.07;;;3.10;;
3447;SDS011;1738;49.500;17.736;2022-08-11T10:42:50;8.00;;;3.37;;
3447;SDS011;1738;49.500;17.736;2022-08-11T10:45:20;6.07;;;3.47;;
3447;SDS011;1738;49.500;17.736;2022-08-11T10:47:53;7.00;;;3.60;;
3447;SDS011;1738;49.500;17.736;2022-08-11T10:50:18;6.07;;;3.30;;
3447;SDS011;1738;49.500;17.736;2022-08-11T10:52:50;8.30;;;3.80;;
3447;SDS011;1738;49.500;17.736;2022-08-11T10:55:22;4.97;;;3.90;;
3447;SDS011;1738;49.500;17.736;2022-08-11T10:57:53;7.80;;;3.80;;
3447;SDS011;1738;49.500;17.736;2022-08-11T11:00:24;11.30;;;5.20;;
3447;SDS011;1738;49.500;17.736;2022-08-11T11:02:50;10.40;;;3.93;;
3447;SDS011;1738;49.500;17.736;2022-08-11T11:05:21;4.40;;;2.70;;
3447;SDS011;1738;49.500;17.736;2022-08-11T11:07:51;4.43;;;3.37;;
3447;SDS011;1738;49.500;17.736;2022-08-11T11:10:15;10.10;;;3.43;;
3447;SDS011;1738;49.500;17.736;2022-08-11T11:12:42;5.80;;;3.43;;
3447;SDS011;1738;49.500;17.736;2022-08-11T11:15:12;8.93;;;3.40;;
3447;SDS011;1738;49.500;17.736;2022-08-11T11:17:46;6.57;;;3.00;;
3447;SDS011;1738;49.500;17.736;2022-08-11T11:20:17;5.77;;;2.97;;
3447;SDS011;1738;49.500;17.736;2022-08-11T11:22:42;12.73;;;4.07;;
3447;SDS011;1738;49.500;17.736;2022-08-11T11:27:47;5.60;;;3.50;;
3447;SDS011;1738;49.500;17.736;2022-08-11T11:30:09;5.73;;;2.90;;
3447;SDS011;1738;49.500;17.736;2022-08-11T11:32:40;7.50;;;3.47;;
3447;SDS011;1738;49.500;17.736;2022-08-11T11:35:10;6.63;;;3.00;;
3447;SDS011;1738;49.500;17.736;2022-08-11T11:37:33;7.67;;;3.33;;
3447;SDS011;1738;49.500;17.736;2022-08-11T11:40:00;4.90;;;3.40;;
3447;SDS011;1738;49.500;17.736;2022-08-11T11:42:26;5.83;;;3.60;;
3447;SDS011;1738;49.500;17.736;2022-08-11T11:44:52;9.77;;;2.47;;
3447;SDS011;1738;49.500;17.736;2022-08-11T11:47:18;6.27;;;3.00;;
3447;SDS011;1738;49.500;17.736;2022-08-11T11:49:44;9.40;;;3.27;;
3447;SDS011;1738;49.500;17.736;2022-08-11T11:52:15;4.93;;;2.30;;
3447;SDS011;1738;49.500;17.736;2022-08-11T11:54:40;8.87;;;3.23;;
3447;SDS011;1738;49.500;17.736;2022-08-11T11:57:06;6.57;;;2.90;;
3447;SDS011;1738;49.500;17.736;2022-08-11T11:59:37;10.77;;;2.80;;
3447;SDS011;1738;49.500;17.736;2022-08-11T12:02:10;3.87;;;2.47;;
3447;SDS011;1738;49.500;17.736;2022-08-11T12:04:36;3.70;;;2.27;;
3447;SDS011;1738;49.500;17.736;2022-08-11T12:07:02;5.60;;;2.67;;
3447;SDS011;1738;49.500;17.736;2022-08-11T12:09:33;6.57;;;2.87;;
3447;SDS011;1738;49.500;17.736;2022-08-11T12:12:00;5.73;;;3.00;;
3447;SDS011;1738;49.500;17.736;2022-08-11T12:14:31;4.80;;;2.90;;
3447;SDS011;1738;49.500;17.736;2022-08-11T12:16:57;6.00;;;2.83;;
3447;SDS011;1738;49.500;17.736;2022-08-11T12:19:24;7.60;;;3.30;;
3447;SDS011;1738;49.500;17.736;2022-08-11T12:21:49;4.10;;;2.80;;
3447;SDS011;1738;49.500;17.736;2022-08-11T12:24:33;4.10;;;2.40;;
3447;SDS011;1738;49.500;17.736;2022-08-11T12:27:19;4.20;;;2.67;;
3447;SDS011;1738;49.500;17.736;2022-08-11T12:29:46;5.03;;;2.90;;
3447;SDS011;1738;49.500;17.736;2022-08-11T12:32:11;6.40;;;3.13;;
3447;SDS011;1738;49.500;17.736;2022-08-11T12:34:37;4.80;;;2.50;;
3447;SDS011;1738;49.500;17.736;2022-08-11T12:37:03;5.23;;;2.90;;
3447;SDS011;1738;49.500;17.736;2022-08-11T12:39:34;3.60;;;2.03;;
3447;SDS011;1738;49.500;17.736;2022-08-11T12:42:04;4.33;;;2.23;;
3447;SDS011;1738;49.500;17.736;2022-08-11T12:44:36;11.03;;;3.30;;
3447;SDS011;1738;49.500;17.736;2022-08-11T12:47:08;8.77;;;3.10;;
3447;SDS011;1738;49.500;17.736;2022-08-11T12:49:35;9.03;;;4.43;;
3447;SDS011;1738;49.500;17.736;2022-08-11T12:52:07;6.17;;;3.40;;
3447;SDS011;1738;49.500;17.736;2022-08-11T12:57:17;5.10;;;3.50;;
3447;SDS011;1738;49.500;17.736;2022-08-11T12:59:47;7.10;;;4.23;;
3447;SDS011;1738;49.500;17.736;2022-08-11T13:02:20;6.03;;;3.17;;
3447;SDS011;1738;49.500;17.736;2022-08-11T13:04:50;9.47;;;3.30;;
3447;SDS011;1738;49.500;17.736;2022-08-11T13:07:19;5.33;;;3.13;;
3447;SDS011;1738;49.500;17.736;2022-08-11T13:09:45;6.87;;;3.50;;
3447;SDS011;1738;49.500;17.736;2022-08-11T13:12:11;6.20;;;3.80;;
3447;SDS011;1738;49.500;17.736;2022-08-11T13:14:43;8.90;;;4.10;;
3447;SDS011;1738;49.500;17.736;2022-08-11T13:17:09;8.07;;;3.90;;
3447;SDS011;1738;49.500;17.736;2022-08-11T13:19:40;5.20;;;3.60;;
3447;SDS011;1738;49.500;17.736;2022-08-11T13:22:06;4.73;;;3.30;;
3447;SDS011;1738;49.500;17.736;2022-08-11T13:24:32;6.00;;;3.87;;
3447;SDS011;1738;49.500;17.736;2022-08-11T13:26:59;7.77;;;3.07;;
3447;SDS011;1738;49.500;17.736;2022-08-11T13:29:25;7.90;;;4.93;;
3447;SDS011;1738;49.500;17.736;2022-08-11T13:31:51;5.83;;;3.57;;
3447;SDS011;1738;49.500;17.736;2022-08-11T13:34:16;5.90;;;3.73;;
3447;SDS011;1738;49.500;17.736;2022-08-11T13:36:42;7.93;;;3.30;;
3447;SDS011;1738;49.500;17.736;2022-08-11T13:39:08;6.90;;;3.17;;
3447;SDS011;1738;49.500;17.736;2022-08-11T13:41:34;4.60;;;3.00;;
3447;SDS011;1738;49.500;17.736;2022-08-11T13:44:02;5.70;;;3.50;;
3447;SDS011;1738;49.500;17.736;2022-08-11T13:46:28;6.17;;;3.27;;
3447;SDS011;1738;49.500;17.736;2022-08-11T13:48:55;5.83;;;2.70;;
3447;SDS011;1738;49.500;17.736;2022-08-11T13:51:20;4.40;;;2.90;;
3447;SDS011;1738;49.500;17.736;2022-08-11T13:54:00;10.53;;;3.27;;
3447;SDS011;1738;49.500;17.736;2022-08-11T13:56:25;4.37;;;2.37;;
3447;SDS011;1738;49.500;17.736;2022-08-11T13:58:51;9.23;;;2.63;;
3447;SDS011;1738;49.500;17.736;2022-08-11T14:01:18;5.80;;;2.10;;
3447;SDS011;1738;49.500;17.736;2022-08-11T14:03:43;4.83;;;2.97;;
3447;SDS011;1738;49.500;17.736;2022-08-11T14:06:09;3.83;;;2.45;;
3447;SDS011;1738;49.500;17.736;2022-08-11T14:08:36;5.70;;;2.60;;
3447;SDS011;1738;49.500;17.736;2022-08-11T14:11:01;8.13;;;3.00;;
3447;SDS011;1738;49.500;17.736;2022-08-11T14:13:32;5.10;;;2.90;;
3447;SDS011;1738;49.500;17.736;2022-08-11T14:16:06;9.37;;;2.73;;
3447;SDS011;1738;49.500;17.736;2022-08-11T14:18:30;4.80;;;2.27;;
3447;SDS011;1738;49.500;17.736;2022-08-11T14:20:55;7.57;;;3.27;;
3447;SDS011;1738;49.500;17.736;2022-08-11T14:23:27;4.57;;;2.07;;
3447;SDS011;1738;49.500;17.736;2022-08-11T14:25:52;4.00;;;2.50;;
3447;SDS011;1738;49.500;17.736;2022-08-11T14:28:23;6.03;;;2.63;;
3447;SDS011;1738;49.500;17.736;2022-08-11T14:30:49;7.10;;;3.50;;
3447;SDS011;1738;49.500;17.736;2022-08-11T14:33:20;8.10;;;3.10;;
3447;SDS011;1738;49.500;17.736;2022-08-11T14:35:46;9.50;;;2.90;;
3447;SDS011;1738;49.500;17.736;2022-08-11T14:38:12;3.57;;;2.40;;
3447;SDS011;1738;49.500;17.736;2022-08-11T14:40:37;3.60;;;2.80;;
3447;SDS011;1738;49.500;17.736;2022-08-11T14:43:09;6.60;;;3.80;;
3447;SDS011;1738;49.500;17.736;2022-08-11T14:45:41;5.83;;;3.07;;
3447;SDS011;1738;49.500;17.736;2022-08-11T14:48:12;3.97;;;2.80;;
3447;SDS011;1738;49.500;17.736;2022-08-11T14:50:38;8.20;;;3.20;;
3447;SDS011;1738;49.500;17.736;2022-08-11T14:53:05;6.30;;;2.77;;
3447;SDS011;1738;49.500;17.736;2022-08-11T14:55:31;5.70;;;2.67;;
3447;SDS011;1738;49.500;17.736;2022-08-11T14:58:16;5.23;;;2.70;;
3447;SDS011;1738;49.500;17.736;2022-08-11T15:00:41;5.00;;;2.73;;
3447;SDS011;1738;49.500;17.736;2022-08-11T15:03:07;5.07;;;3.00;;
3447;SDS011;1738;49.500;17.736;2022-08-11T15:05:35;4.50;;;2.07;;
3447;SDS011;1738;49.500;17.736;2022-08-11T15:08:00;4.33;;;2.67;;
3447;SDS011;1738;49.500;17.736;2022-08-11T15:10:26;5.23;;;2.40;;
3447;SDS011;1738;49.500;17.736;2022-08-11T15:12:52;2.97;;;2.10;;
3447;SDS011;1738;49.500;17.736;2022-08-11T15:15:18;4.43;;;2.23;;
3447;SDS011;1738;49.500;17.736;2022-08-11T15:17:50;5.80;;;2.80;;
3447;SDS011;1738;49.500;17.736;2022-08-11T15:20:17;9.97;;;2.23;;
3447;SDS011;1738;49.500;17.736;2022-08-11T15:22:48;5.33;;;2.43;;
3447;SDS011;1738;49.500;17.736;2022-08-11T15:25:19;7.33;;;2.50;;
3447;SDS011;1738;49.500;17.736;2022-08-11T15:27:46;5.67;;;2.30;;
3447;SDS011;1738;49.500;17.736;2022-08-11T15:30:17;7.80;;;2.47;;
3447;SDS011;1738;49.500;17.736;2022-08-11T15:32:48;3.90;;;2.10;;
3447;SDS011;1738;49.500;17.736;2022-08-11T15:35:20;7.70;;;2.53;;
3447;SDS011;1738;49.500;17.736;2022-08-11T15:37:53;6.37;;;2.77;;
3447;SDS011;1738;49.500;17.736;2022-08-11T15:40:18;5.67;;;2.63;;
3447;SDS011;1738;49.500;17.736;2022-08-11T15:43:00;5.80;;;2.67;;
3447;SDS011;1738;49.500;17.736;2022-08-11T15:45:32;4.93;;;2.17;;
3447;SDS011;1738;49.500;17.736;2022-08-11T15:48:05;3.93;;;2.30;;
3447;SDS011;1738;49.500;17.736;2022-08-11T15:50:29;3.50;;;2.27;;
3447;SDS011;1738;49.500;17.736;2022-08-11T15:52:57;3.33;;;2.17;;
3447;SDS011;1738;49.500;17.736;2022-08-11T15:55:21;3.87;;;2.23;;
3447;SDS011;1738;49.500;17.736;2022-08-11T15:57:48;6.90;;;3.10;;
3447;SDS011;1738;49.500;17.736;2022-08-11T16:00:19;3.27;;;2.47;;
3447;SDS011;1738;49.500;17.736;2022-08-11T16:02:51;9.10;;;2.47;;
3447;SDS011;1738;49.500;17.736;2022-08-11T16:05:26;3.73;;;2.30;;
3447;SDS011;1738;49.500;17.736;2022-08-11T16:07:52;4.50;;;2.30;;